Time;durP1;ratioP1;P1;durP2;ratioP2;P2;SDS_P1;SDS_P2;PMS_P1;PMS_P2;Temp;Humidity;BMP_temperature;BMP_pressure;BME280_temperature;BME280_humidity;BME280_pressure;Samples;Min_cycle;Max_cycle;Signal;HPM_P1;HPM_P2
2022/12/25 00:02:09;;;;;;;;;;;4.10;99.90;;;;;;5138434;27;19962;-78
2022/12/25 00:04:34;;;;;;;;;;;4.10;99.90;;;;;;5120001;27;19919;-78
2022/12/25 00:07:00;;;;;;;;;;;4.10;99.90;;;;;;5138549;27;19958;-78
2022/12/25 00:09:25;;;;;;;;;;;4.10;99.90;;;;;;5138538;27;20013;-78
2022/12/25 00:11:51;;;;;;;;;;;4.10;99.90;;;;;;5138247;27;19979;-78
2022/12/25 00:14:16;;;;;;;;;;;4.10;99.90;;;;;;5138729;27;20271;-78
2022/12/25 00:16:42;;;;;;;;;;;4.10;99.90;;;;;;5138162;27;20382;-78
2022/12/25 00:19:07;;;;;;;;;;;4.10;99.90;;;;;;5138465;27;19919;-78
2022/12/25 00:21:33;;;;;;;;;;;4.10;99.90;;;;;;5138270;27;19926;-78
2022/12/25 00:23:58;;;;;;;;;;;4.10;99.90;;;;;;5138295;27;20000;-78
2022/12/25 00:26:25;;;;;;;;;;;4.20;99.90;;;;;;5138252;27;19919;-78
2022/12/25 00:28:52;;;;;;;;;;;4.20;99.90;;;;;;5138177;27;19919;-78
2022/12/25 00:31:19;;;;;;;;;;;4.20;99.90;;;;;;5138058;27;19924;-78
2022/12/25 00:33:45;;;;;;;;;;;4.20;99.90;;;;;;5137854;27;20375;-78
2022/12/25 00:36:11;;;;;;;;;;;4.20;99.90;;;;;;5137716;27;20298;-78
2022/12/25 00:38:37;;;;;;;;;;;4.20;99.90;;;;;;5137692;27;20010;-78
2022/12/25 00:41:13;;;;;;;;;;;4.20;99.90;;;;;;5138049;27;19919;-78
2022/12/25 00:43:40;;;;;;;;;;;4.30;99.90;;;;;;5137735;27;20017;-78
2022/12/25 00:46:06;;;;;;;;;;;4.20;99.90;;;;;;5137328;27;19968;-78
2022/12/25 00:48:33;;;;;;;;;;;4.80;99.90;;;;;;5137865;27;19980;-78
2022/12/25 00:51:00;;;;;;;;;;;4.30;99.90;;;;;;5137252;27;19919;-78
2022/12/25 00:53:26;;;;;;;;;;;4.90;99.90;;;;;;5137535;27;19959;-78
2022/12/25 00:55:52;;;;;;;;;;;4.30;99.90;;;;;;5137545;27;20354;-78
2022/12/25 00:58:18;;;;;;;;;;;4.30;99.90;;;;;;5137717;27;19920;-78
2022/12/25 01:00:43;;;;;;;;;;;4.40;99.90;;;;;;5137636;27;19926;-78
2022/12/25 01:03:09;;;;;;;;;;;4.30;99.90;;;;;;5137185;27;20381;-78
2022/12/25 01:05:34;;;;;;;;;;;4.30;99.90;;;;;;5137908;27;19920;-78
2022/12/25 01:08:00;;;;;;;;;;;4.30;99.90;;;;;;5118821;27;19933;-78
2022/12/25 01:10:25;;;;;;;;;;;4.30;99.90;;;;;;5137018;27;19974;-79
2022/12/25 01:12:51;;;;;;;;;;;4.30;99.90;;;;;;5137303;27;19972;-78
2022/12/25 01:15:17;;;;;;;;;;;4.30;99.90;;;;;;5137386;27;19919;-78
2022/12/25 01:17:43;;;;;;;;;;;4.30;99.90;;;;;;5136824;27;19920;-78
2022/12/25 01:20:09;;;;;;;;;;;4.30;99.90;;;;;;5137080;27;19919;-78
2022/12/25 01:22:35;;;;;;;;;;;4.30;99.90;;;;;;5137465;27;19919;-78
2022/12/25 01:25:00;;;;;;;;;;;4.30;99.90;;;;;;5137130;27;19972;-78
2022/12/25 01:27:26;;;;;;;;;;;4.30;99.90;;;;;;5136835;27;19923;-78
2022/12/25 01:29:51;;;;;;;;;;;4.30;99.90;;;;;;5136686;27;19919;-78
2022/12/25 01:32:17;;;;;;;;;;;4.30;99.90;;;;;;5136951;27;19919;-78
2022/12/25 01:34:42;;;;;;;;;;;4.40;99.90;;;;;;5136925;27;20391;-78
2022/12/25 01:37:08;;;;;;;;;;;4.40;99.90;;;;;;5136814;27;20064;-78
2022/12/25 01:39:34;;;;;;;;;;;4.50;99.90;;;;;;5136570;27;19970;-78
2022/12/25 01:42:00;;;;;;;;;;;4.50;99.90;;;;;;5136220;27;19987;-78
2022/12/25 01:44:34;;;;;;;;;;;4.50;99.90;;;;;;5136827;27;19931;-78
2022/12/25 01:47:00;;;;;;;;;;;4.60;99.90;;;;;;5136351;27;20363;-78
2022/12/25 01:49:26;;;;;;;;;;;3.70;99.90;;;;;;5136235;27;19967;-78
2022/12/25 01:51:56;;;;;;;;;;;5.00;99.90;;;;;;5136279;27;20355;-78
2022/12/25 01:54:32;;;;;;;;;;;4.80;99.90;;;;;;5136285;27;20401;-78
2022/12/25 01:56:59;;;;;;;;;;;4.90;99.90;;;;;;5136450;27;19919;-78
2022/12/25 01:59:26;;;;;;;;;;;4.80;99.90;;;;;;5136174;27;19926;-78
2022/12/25 02:01:51;;;;;;;;;;;4.90;99.90;;;;;;5136029;27;20006;-78
2022/12/25 02:04:37;;;;;;;;;;;4.90;99.90;;;;;;5135730;27;19962;-78
2022/12/25 02:07:11;;;;;;;;;;;4.90;99.90;;;;;;5136124;27;20010;-78
2022/12/25 02:09:37;;;;;;;;;;;4.90;99.90;;;;;;5135419;27;19919;-78
2022/12/25 02:12:03;;;;;;;;;;;4.90;99.90;;;;;;5135938;27;19926;-78
2022/12/25 02:14:31;;;;;;;;;;;4.90;99.90;;;;;;5135948;27;20014;-78
2022/12/25 02:17:17;;;;;;;;;;;4.90;99.90;;;;;;5136120;27;19919;-78
2022/12/25 02:20:01;;;;;;;;;;;4.90;99.90;;;;;;5093599;27;19930;-78
2022/12/25 02:22:29;;;;;;;;;;;4.90;99.90;;;;;;5135321;27;20456;-78
2022/12/25 02:25:03;;;;;;;;;;;4.90;99.90;;;;;;5135578;27;19972;-78
2022/12/25 02:27:32;;;;;;;;;;;4.90;99.90;;;;;;5135615;27;19919;-78
2022/12/25 02:30:03;;;;;;;;;;;4.90;99.90;;;;;;5136042;27;19919;-78
2022/12/25 02:32:42;;;;;;;;;;;4.90;99.90;;;;;;5135526;27;20330;-78
2022/12/25 02:35:17;;;;;;;;;;;4.90;99.90;;;;;;5135461;27;20006;-78
2022/12/25 02:37:42;;;;;;;;;;;4.90;99.90;;;;;;5135924;27;19923;-78
2022/12/25 02:40:19;;;;;;;;;;;5.00;99.90;;;;;;5135549;27;20308;-78
2022/12/25 03:08:15;;;;;;;;;;;5.30;99.90;;;;;;5135142;27;19919;-78
2022/12/25 03:13:31;;;;;;;;;;;5.30;99.90;;;;;;5117661;27;20290;-78
2022/12/25 03:18:48;;;;;;;;;;;5.40;99.90;;;;;;5102830;27;19919;-78
2022/12/25 03:26:55;;;;;;;;;;;5.50;99.90;;;;;;5134601;27;19919;-78
2022/12/25 03:32:15;;;;;;;;;;;5.70;99.90;;;;;;5134775;28;19919;-78
2022/12/25 04:38:36;;;;;;;;;;;7.50;99.90;;;;;;5137930;27;19923;-78
2022/12/25 04:41:02;;;;;;;;;;;6.70;99.90;;;;;;5138075;27;20345;-78
2022/12/25 04:43:28;;;;;;;;;;;6.70;99.90;;;;;;5137719;27;19966;-78
2022/12/25 04:45:55;;;;;;;;;;;6.70;99.90;;;;;;5137587;27;19919;-78
2022/12/25 04:48:20;;;;;;;;;;;6.80;99.90;;;;;;5137633;27;19920;-78
2022/12/25 04:50:46;;;;;;;;;;;7.00;99.90;;;;;;5137820;27;19975;-78
2022/12/25 04:53:11;;;;;;;;;;;7.10;99.90;;;;;;5137605;27;20006;-78
2022/12/25 04:55:37;;;;;;;;;;;7.20;99.90;;;;;;5137527;27;19923;-78
2022/12/25 04:58:02;;;;;;;;;;;7.20;99.90;;;;;;5119376;27;20035;-78
2022/12/25 05:00:28;;;;;;;;;;;6.80;99.90;;;;;;5137609;27;19984;-78
2022/12/25 05:02:53;;;;;;;;;;;6.80;99.90;;;;;;5137343;27;20317;-78
2022/12/25 05:05:19;;;;;;;;;;;6.80;99.90;;;;;;5137588;27;19919;-78
2022/12/25 05:07:44;;;;;;;;;;;6.80;99.90;;;;;;5137479;27;20050;-78
2022/12/25 05:10:10;;;;;;;;;;;6.90;99.90;;;;;;5136979;27;19927;-79
2022/12/25 05:12:35;;;;;;;;;;;6.80;99.90;;;;;;5137318;27;19931;-79
2022/12/25 05:15:01;;;;;;;;;;;6.80;99.90;;;;;;5137711;27;19972;-79
2022/12/25 05:17:26;;;;;;;;;;;6.90;99.90;;;;;;5137474;27;19919;-79
2022/12/25 05:19:52;;;;;;;;;;;6.90;99.90;;;;;;5137328;27;19919;-79
2022/12/25 05:22:17;;;;;;;;;;;6.90;99.90;;;;;;5137150;27;19926;-79
2022/12/25 05:24:43;;;;;;;;;;;7.00;99.90;;;;;;5136599;27;20371;-79
2022/12/25 05:27:08;;;;;;;;;;;6.90;99.90;;;;;;5137221;27;19926;-79
2022/12/25 05:29:34;;;;;;;;;;;6.90;99.90;;;;;;5137053;27;19923;-77
2022/12/25 05:31:59;;;;;;;;;;;7.00;99.90;;;;;;5136718;27;20478;-79
2022/12/25 05:34:25;;;;;;;;;;;7.00;99.90;;;;;;5136829;27;19930;-79
2022/12/25 05:36:51;;;;;;;;;;;7.30;99.90;;;;;;5136811;27;19919;-79
2022/12/25 05:39:16;;;;;;;;;;;7.00;99.90;;;;;;5136689;27;19919;-79
2022/12/25 05:41:41;;;;;;;;;;;7.10;99.90;;;;;;5136537;27;19970;-79
2022/12/25 05:44:07;;;;;;;;;;;7.10;99.90;;;;;;5117533;27;19919;-79
2022/12/25 05:46:32;;;;;;;;;;;7.10;99.90;;;;;;5136900;27;19969;-79
2022/12/25 05:48:58;;;;;;;;;;;7.20;99.90;;;;;;5136479;27;19920;-79
2022/12/25 05:51:24;;;;;;;;;;;7.20;99.90;;;;;;5136355;27;19919;-79
2022/12/25 05:53:50;;;;;;;;;;;7.30;99.90;;;;;;5136552;27;19971;-79
2022/12/25 05:56:16;;;;;;;;;;;7.30;99.90;;;;;;5136281;27;19924;-78
2022/12/25 05:58:41;;;;;;;;;;;7.40;99.90;;;;;;5136582;27;19919;-80
2022/12/25 06:01:11;;;;;;;;;;;7.30;99.90;;;;;;5136354;27;19919;-80
2022/12/25 06:03:37;;;;;;;;;;;7.40;99.90;;;;;;5136456;27;19934;-80
2022/12/25 06:06:03;;;;;;;;;;;7.40;99.90;;;;;;5136370;27;20355;-80
2022/12/25 06:08:29;;;;;;;;;;;7.50;99.90;;;;;;5135907;27;19926;-80
2022/12/25 06:10:54;;;;;;;;;;;7.50;99.90;;;;;;5136421;27;20467;-83
2022/12/25 06:13:20;;;;;;;;;;;7.50;99.90;;;;;;5136207;27;19926;-81
2022/12/25 06:15:45;;;;;;;;;;;7.60;99.90;;;;;;5135903;27;19923;-81
2022/12/25 06:18:10;;;;;;;;;;;8.50;99.90;;;;;;5117926;27;19926;-81
2022/12/25 06:20:38;;;;;;;;;;;7.60;99.90;;;;;;5135965;27;20331;-74
2022/12/25 06:23:04;;;;;;;;;;;7.60;99.90;;;;;;5135961;27;19927;-73
2022/12/25 06:25:30;;;;;;;;;;;7.60;99.90;;;;;;5135727;27;20317;-78
2022/12/25 06:27:55;;;;;;;;;;;7.60;99.90;;;;;;5135562;27;19930;-80
2022/12/25 06:30:21;;;;;;;;;;;7.70;99.90;;;;;;5135890;27;19926;-80
2022/12/25 06:32:46;;;;;;;;;;;7.70;99.90;;;;;;5135485;27;19946;-79
2022/12/25 06:35:12;;;;;;;;;;;7.70;99.90;;;;;;5135672;27;20006;-80
2022/12/25 06:37:37;;;;;;;;;;;7.70;99.90;;;;;;5135750;27;20010;-73
2022/12/25 06:40:03;;;;;;;;;;;7.70;99.90;;;;;;5134972;27;19920;-80
2022/12/25 06:42:28;;;;;;;;;;;7.80;99.90;;;;;;5135601;27;19919;-81
2022/12/25 06:44:54;;;;;;;;;;;7.80;99.90;;;;;;5135252;27;19972;-79
2022/12/25 06:47:19;;;;;;;;;;;8.30;99.90;;;;;;5117086;27;19923;-79
2022/12/25 06:49:45;;;;;;;;;;;7.80;99.90;;;;;;5135421;27;19923;-79
2022/12/25 06:52:10;;;;;;;;;;;7.80;99.90;;;;;;5135357;27;19927;-79
2022/12/25 06:54:36;;;;;;;;;;;7.80;99.90;;;;;;5134963;27;19919;-79
2022/12/25 06:57:01;;;;;;;;;;;7.80;99.90;;;;;;5135328;27;19950;-79
2022/12/25 06:59:27;;;;;;;;;;;7.80;99.90;;;;;;5135636;27;19966;-79
2022/12/25 07:01:54;;;;;;;;;;;7.80;99.90;;;;;;5135411;27;19919;-79
2022/12/25 07:04:23;;;;;;;;;;;7.80;99.90;;;;;;5134986;27;19947;-79
2022/12/25 07:06:48;;;;;;;;;;;7.80;99.90;;;;;;5135238;27;19919;-80
2022/12/25 07:09:14;;;;;;;;;;;7.80;99.90;;;;;;5134920;27;19933;-79
2022/12/25 07:11:39;;;;;;;;;;;7.80;99.90;;;;;;5134990;27;20355;-80
2022/12/25 07:14:05;;;;;;;;;;;7.80;99.90;;;;;;5135159;27;19931;-79
2022/12/25 07:16:30;;;;;;;;;;;7.70;99.90;;;;;;5135219;27;20363;-80
2022/12/25 07:18:58;;;;;;;;;;;7.70;99.90;;;;;;5135003;27;19934;-77
2022/12/25 07:21:23;;;;;;;;;;;7.60;99.90;;;;;;5134883;27;20442;-79
2022/12/25 07:23:49;;;;;;;;;;;7.60;99.90;;;;;;5151096;27;20008;-79
2022/12/25 07:26:16;;;;;;;;;;;7.80;99.90;;;;;;5135061;27;19919;-79
2022/12/25 07:28:41;;;;;;;;;;;7.60;99.90;;;;;;5135132;27;20339;-79
2022/12/25 07:31:11;;;;;;;;;;;7.70;99.90;;;;;;5134538;27;19967;-79
2022/12/25 07:33:37;;;;;;;;;;;8.40;99.90;;;;;;5135051;27;19925;-79
2022/12/25 07:36:04;;;;;;;;;;;7.60;99.90;;;;;;5134534;28;20287;-79
2022/12/25 07:38:30;;;;;;;;;;;7.60;99.90;;;;;;5134338;28;19919;-79
2022/12/25 07:40:55;;;;;;;;;;;7.60;99.90;;;;;;5134457;28;20359;-79
2022/12/25 07:43:21;;;;;;;;;;;7.60;99.90;;;;;;5134726;28;19919;-79
2022/12/25 07:45:47;;;;;;;;;;;7.60;99.90;;;;;;5134828;28;20391;-79
2022/12/25 07:48:12;;;;;;;;;;;7.70;99.90;;;;;;5134527;28;19972;-79
2022/12/25 07:50:38;;;;;;;;;;;7.60;99.90;;;;;;5134331;28;20013;-79
2022/12/25 07:53:03;;;;;;;;;;;7.60;99.90;;;;;;5134328;28;19923;-79
2022/12/25 07:55:29;;;;;;;;;;;7.90;99.90;;;;;;5134565;28;19963;-79
2022/12/25 07:57:54;;;;;;;;;;;8.40;99.90;;;;;;5134741;28;19919;-79
2022/12/25 08:00:20;;;;;;;;;;;7.60;99.90;;;;;;5134810;28;19942;-79
2022/12/25 08:02:48;;;;;;;;;;;7.50;99.90;;;;;;5134440;28;19924;-79
2022/12/25 08:05:13;;;;;;;;;;;7.50;99.90;;;;;;5134695;28;19919;-79
2022/12/25 08:07:39;;;;;;;;;;;7.50;99.90;;;;;;5136350;27;20283;-79
2022/12/25 08:10:05;;;;;;;;;;;7.50;99.90;;;;;;5139008;27;19919;-79
2022/12/25 08:12:30;;;;;;;;;;;7.50;99.90;;;;;;5120788;27;19919;-79
2022/12/25 08:14:56;;;;;;;;;;;7.50;99.90;;;;;;5138367;27;20018;-79
2022/12/25 08:17:21;;;;;;;;;;;7.50;99.90;;;;;;5138406;27;19919;-79
2022/12/25 08:19:46;;;;;;;;;;;7.40;99.90;;;;;;5138368;27;20367;-79
2022/12/25 08:22:12;;;;;;;;;;;7.50;99.90;;;;;;5138481;27;19924;-79
2022/12/25 08:24:37;;;;;;;;;;;8.10;99.90;;;;;;5138788;27;19919;-79
2022/12/25 08:27:03;;;;;;;;;;;7.50;99.90;;;;;;5138033;27;19919;-79
2022/12/25 08:29:28;;;;;;;;;;;7.50;99.90;;;;;;5138095;27;19956;-79
2022/12/25 08:31:54;;;;;;;;;;;7.50;99.90;;;;;;5119697;27;19926;-79
2022/12/25 08:34:20;;;;;;;;;;;7.90;99.90;;;;;;5138210;27;19970;-79
2022/12/25 08:36:45;;;;;;;;;;;7.50;99.90;;;;;;5137660;27;20367;-79
2022/12/25 08:39:11;;;;;;;;;;;7.60;99.90;;;;;;5138053;27;19980;-79
2022/12/25 08:41:37;;;;;;;;;;;8.30;99.90;;;;;;5138238;27;19962;-79
2022/12/25 08:44:03;;;;;;;;;;;8.00;99.90;;;;;;5153878;27;20064;-79
2022/12/25 08:46:28;;;;;;;;;;;7.60;99.90;;;;;;5137582;27;19927;-79
2022/12/25 08:48:55;;;;;;;;;;;7.60;99.90;;;;;;5137991;27;19919;-79
2022/12/25 08:51:21;;;;;;;;;;;7.70;99.90;;;;;;5137592;27;19920;-79
2022/12/25 08:53:47;;;;;;;;;;;7.70;99.90;;;;;;5137725;27;20289;-79
2022/12/25 08:56:13;;;;;;;;;;;7.80;99.90;;;;;;5153576;27;19919;-79
2022/12/25 08:58:39;;;;;;;;;;;7.80;99.90;;;;;;5137503;27;19926;-79
2022/12/25 09:01:05;;;;;;;;;;;7.80;99.90;;;;;;5137772;27;19919;-79
2022/12/25 09:03:31;;;;;;;;;;;7.80;99.90;;;;;;5137475;27;19968;-79
2022/12/25 09:06:01;;;;;;;;;;;7.80;99.90;;;;;;5137366;27;19963;-79
2022/12/25 09:08:26;;;;;;;;;;;7.80;99.90;;;;;;5137461;27;20336;-77
2022/12/25 09:10:52;;;;;;;;;;;7.90;99.90;;;;;;5119679;27;19923;-79
2022/12/25 09:13:17;;;;;;;;;;;7.80;99.90;;;;;;5137148;27;19919;-79
2022/12/25 09:15:42;;;;;;;;;;;7.90;99.90;;;;;;5136958;27;20274;-79
2022/12/25 09:18:08;;;;;;;;;;;7.90;99.90;;;;;;5137482;27;19927;-79
2022/12/25 09:20:34;;;;;;;;;;;8.00;99.90;;;;;;5137073;27;19926;-79
2022/12/25 09:22:59;;;;;;;;;;;8.00;99.90;;;;;;5136945;27;19919;-79
2022/12/25 09:25:25;;;;;;;;;;;8.00;99.90;;;;;;5136937;27;19942;-79
2022/12/25 09:27:50;;;;;;;;;;;8.00;99.90;;;;;;5137079;27;20275;-79
2022/12/25 09:30:16;;;;;;;;;;;8.00;99.90;;;;;;5137006;27;19919;-79
2022/12/25 09:32:41;;;;;;;;;;;8.20;99.90;;;;;;5136985;27;19919;-79
2022/12/25 09:35:07;;;;;;;;;;;8.60;99.90;;;;;;5136847;27;19972;-79
2022/12/25 09:37:33;;;;;;;;;;;8.10;99.90;;;;;;5136841;27;19919;-79
2022/12/25 09:39:58;;;;;;;;;;;8.10;99.90;;;;;;5136688;27;19920;-79
2022/12/25 09:42:27;;;;;;;;;;;8.10;99.90;;;;;;5136839;27;19923;-78
2022/12/25 09:45:13;;;;;;;;;;;8.10;99.90;;;;;;5136726;27;19919;-79
2022/12/25 09:47:41;;;;;;;;;;;8.50;99.90;;;;;;5136407;27;20011;-79
2022/12/25 09:50:11;;;;;;;;;;;8.20;99.90;;;;;;5136623;27;19919;-80
2022/12/25 09:52:36;;;;;;;;;;;8.20;99.90;;;;;;5136133;27;19940;-80
2022/12/25 09:55:07;;;;;;;;;;;8.20;99.90;;;;;;5136413;27;19919;-79
2022/12/25 09:57:32;;;;;;;;;;;8.20;99.90;;;;;;5136106;27;20430;-80
2022/12/25 09:59:58;;;;;;;;;;;9.00;99.90;;;;;;5136739;27;20010;-80
2022/12/25 10:02:23;;;;;;;;;;;8.30;99.90;;;;;;5136604;27;19923;-77
2022/12/25 10:04:51;;;;;;;;;;;8.30;99.90;;;;;;5136340;27;19930;-79
2022/12/25 10:07:20;;;;;;;;;;;8.30;99.90;;;;;;5136875;27;19919;-80
2022/12/25 10:09:46;;;;;;;;;;;8.70;99.90;;;;;;5136650;27;19978;-80
2022/12/25 10:12:11;;;;;;;;;;;8.30;99.90;;;;;;5136092;27;19974;-79
2022/12/25 10:14:42;;;;;;;;;;;8.30;99.90;;;;;;5136240;27;20296;-80
2022/12/25 10:17:19;;;;;;;;;;;8.40;99.90;;;;;;5136132;27;19919;-80
2022/12/25 10:19:54;;;;;;;;;;;8.40;99.90;;;;;;5136033;27;19927;-80
2022/12/25 10:22:27;;;;;;;;;;;8.40;99.90;;;;;;5136443;27;20008;-80
2022/12/25 10:24:54;;;;;;;;;;;8.40;99.90;;;;;;5136223;27;19965;-79
2022/12/25 10:27:27;;;;;;;;;;;8.40;99.90;;;;;;5135833;27;19927;-80
2022/12/25 10:29:53;;;;;;;;;;;8.40;99.90;;;;;;5135096;27;19964;-79
2022/12/25 10:32:19;;;;;;;;;;;8.40;99.90;;;;;;5136113;27;19940;-79
2022/12/25 10:34:44;;;;;;;;;;;8.40;99.90;;;;;;5136183;27;20010;-80
2022/12/25 10:37:10;;;;;;;;;;;8.40;99.90;;;;;;5135483;27;20287;-80
2022/12/25 10:39:36;;;;;;;;;;;8.50;99.90;;;;;;5135545;27;20359;-80
2022/12/25 10:42:05;;;;;;;;;;;8.50;99.90;;;;;;5135486;27;19926;-80
2022/12/25 10:44:32;;;;;;;;;;;8.40;99.90;;;;;;5135403;27;19919;-80
2022/12/25 10:46:58;;;;;;;;;;;8.50;99.90;;;;;;5135125;27;19974;-80
2022/12/25 10:49:28;;;;;;;;;;;8.30;99.90;;;;;;5135586;27;20011;-80
2022/12/25 10:51:54;;;;;;;;;;;8.70;99.90;;;;;;5117092;27;20015;-79
2022/12/25 10:54:21;;;;;;;;;;;8.50;99.90;;;;;;5135424;27;20327;-80
2022/12/25 10:56:58;;;;;;;;;;;8.50;99.90;;;;;;5135287;27;20367;-80
2022/12/25 10:59:26;;;;;;;;;;;8.50;99.90;;;;;;5135946;27;19919;-80
2022/12/25 11:01:52;;;;;;;;;;;8.60;99.90;;;;;;5117365;27;20309;-80
2022/12/25 11:04:19;;;;;;;;;;;8.50;99.90;;;;;;5117004;27;19923;-80
2022/12/25 11:06:54;;;;;;;;;;;9.10;99.90;;;;;;5116530;27;19920;-80
2022/12/25 11:09:19;;;;;;;;;;;8.60;99.90;;;;;;5135242;27;20404;-79
2022/12/25 11:11:46;;;;;;;;;;;8.60;99.90;;;;;;5134804;27;19923;-77
2022/12/25 11:14:15;;;;;;;;;;;8.60;99.90;;;;;;5135115;27;19944;-79
2022/12/25 11:16:41;;;;;;;;;;;8.60;99.90;;;;;;5135004;27;19934;-79
2022/12/25 11:19:36;;;;;;;;;;;8.70;99.90;;;;;;5135008;27;19920;-80
2022/12/25 11:22:03;;;;;;;;;;;8.70;99.90;;;;;;5117351;27;20312;-80
2022/12/25 11:24:32;;;;;;;;;;;9.30;99.90;;;;;;5134781;27;19931;-79
2022/12/25 11:26:59;;;;;;;;;;;8.60;99.90;;;;;;5134666;27;19920;-80
2022/12/25 11:29:25;;;;;;;;;;;8.70;99.90;;;;;;5134749;27;19959;-80
2022/12/25 11:31:52;;;;;;;;;;;8.70;99.90;;;;;;5135067;27;19981;-80
2022/12/25 11:34:43;;;;;;;;;;;8.90;99.90;;;;;;5134879;27;19919;-80
2022/12/25 11:37:35;;;;;;;;;;;8.70;99.90;;;;;;5130452;28;20006;-80
2022/12/25 11:40:01;;;;;;;;;;;8.70;99.90;;;;;;5102887;28;19972;-78
2022/12/25 11:42:32;;;;;;;;;;;8.70;99.90;;;;;;5136401;27;19923;-80
2022/12/25 11:45:10;;;;;;;;;;;8.70;99.90;;;;;;5139169;27;19920;-80
2022/12/25 11:47:50;;;;;;;;;;;8.70;99.90;;;;;;5138974;27;19923;-80
2022/12/25 11:50:22;;;;;;;;;;;8.70;99.90;;;;;;5138740;27;19923;-77
2022/12/25 11:52:48;;;;;;;;;;;8.80;99.90;;;;;;5138914;27;20328;-80
2022/12/25 11:55:13;;;;;;;;;;;8.70;99.90;;;;;;5138826;27;19919;-78
2022/12/25 11:57:40;;;;;;;;;;;9.40;99.90;;;;;;5138547;27;19964;-80
2022/12/25 12:00:08;;;;;;;;;;;8.70;99.90;;;;;;5138669;27;19923;-79
2022/12/25 12:02:36;;;;;;;;;;;8.70;99.90;;;;;;5138523;27;19927;-78
2022/12/25 12:05:07;;;;;;;;;;;8.70;99.90;;;;;;5138575;27;19919;-80
2022/12/25 12:07:32;;;;;;;;;;;8.70;99.90;;;;;;5138881;27;20367;-78
2022/12/25 12:10:06;;;;;;;;;;;8.70;99.90;;;;;;5138520;27;19925;-78
2022/12/25 12:12:50;;;;;;;;;;;8.70;99.90;;;;;;5138500;27;20024;-78
2022/12/25 12:15:15;;;;;;;;;;;8.70;99.90;;;;;;5138521;27;19923;-78
2022/12/25 12:17:41;;;;;;;;;;;8.70;99.90;;;;;;5138046;27;19926;-80
2022/12/25 12:20:32;;;;;;;;;;;8.70;99.90;;;;;;5138325;27;19919;-80
2022/12/25 12:22:59;;;;;;;;;;;8.70;99.90;;;;;;5134265;27;19995;-78
2022/12/25 12:25:25;;;;;;;;;;;8.70;99.90;;;;;;5138525;27;19987;-78
2022/12/25 12:27:56;;;;;;;;;;;8.70;99.90;;;;;;5138137;27;19972;-78
2022/12/25 12:30:26;;;;;;;;;;;8.70;99.90;;;;;;5137967;27;19926;-80
2022/12/25 12:32:53;;;;;;;;;;;8.70;99.90;;;;;;5138493;27;19919;-80
2022/12/25 12:35:32;;;;;;;;;;;8.70;99.90;;;;;;5119355;27;20353;-78
2022/12/25 12:38:10;;;;;;;;;;;8.70;99.90;;;;;;5137876;27;19920;-78
2022/12/25 12:40:38;;;;;;;;;;;8.70;99.90;;;;;;5138290;27;19926;-78
2022/12/25 12:43:04;;;;;;;;;;;8.70;99.90;;;;;;5137934;27;19984;-79
2022/12/25 12:45:36;;;;;;;;;;;8.80;99.90;;;;;;5137660;27;19920;-78
2022/12/25 12:48:12;;;;;;;;;;;8.80;99.90;;;;;;5137263;27;19935;-77
2022/12/25 12:50:39;;;;;;;;;;;8.80;99.90;;;;;;5137850;27;20019;-77
2022/12/25 12:53:16;;;;;;;;;;;9.00;99.90;;;;;;5137083;27;19923;-77
2022/12/25 12:55:42;;;;;;;;;;;8.80;99.90;;;;;;5137871;27;20023;-80
2022/12/25 12:58:10;;;;;;;;;;;8.80;99.90;;;;;;5137468;27;19956;-77
2022/12/25 13:00:45;;;;;;;;;;;9.20;99.90;;;;;;5137362;27;19919;-77
2022/12/25 13:03:10;;;;;;;;;;;8.70;99.90;;;;;;5137427;27;20495;-80
2022/12/25 13:05:46;;;;;;;;;;;8.70;99.90;;;;;;5137626;27;20005;-78
2022/12/25 13:08:36;;;;;;;;;;;8.70;99.90;;;;;;5137392;27;19927;-78
2022/12/25 13:11:22;;;;;;;;;;;8.70;99.90;;;;;;5137630;27;19926;-80
2022/12/25 13:13:49;;;;;;;;;;;8.70;99.90;;;;;;5136506;27;20275;-78
2022/12/25 13:16:21;;;;;;;;;;;8.70;99.90;;;;;;5137615;27;19919;-78
2022/12/25 13:18:46;;;;;;;;;;;8.70;99.90;;;;;;5136779;27;19948;-77
2022/12/25 13:21:16;;;;;;;;;;;8.70;99.90;;;;;;5137043;27;20042;-78
2022/12/25 13:23:41;;;;;;;;;;;8.60;99.90;;;;;;5137629;27;19926;-78
2022/12/25 13:26:11;;;;;;;;;;;8.60;99.90;;;;;;5137039;27;19919;-78
2022/12/25 13:28:37;;;;;;;;;;;8.60;99.90;;;;;;5137070;27;19926;-80
2022/12/25 13:31:02;;;;;;;;;;;8.60;99.90;;;;;;5136528;27;20017;-80
2022/12/25 13:33:28;;;;;;;;;;;8.60;99.90;;;;;;5136895;27;19927;-78
2022/12/25 13:35:53;;;;;;;;;;;8.60;99.90;;;;;;5136661;27;19919;-77
2022/12/25 13:38:20;;;;;;;;;;;8.60;99.90;;;;;;5136272;27;19929;-77
2022/12/25 13:43:39;;;;;;;;;;;8.50;99.90;;;;;;5136645;27;19919;-79
2022/12/25 13:46:05;;;;;;;;;;;9.00;99.90;;;;;;5136535;27;20025;-77
2022/12/25 13:48:31;;;;;;;;;;;8.60;99.90;;;;;;5136869;27;19997;-77
2022/12/25 13:50:57;;;;;;;;;;;8.70;99.90;;;;;;5136190;27;19920;-79
2022/12/25 13:53:23;;;;;;;;;;;8.60;99.90;;;;;;5136344;27;20022;-79
2022/12/25 13:55:51;;;;;;;;;;;8.50;99.90;;;;;;5152555;27;19978;-79
2022/12/25 13:58:24;;;;;;;;;;;8.50;99.90;;;;;;5136217;27;19919;-79
2022/12/25 14:00:54;;;;;;;;;;;8.40;99.90;;;;;;5136116;27;19919;-79
2022/12/25 14:03:27;;;;;;;;;;;8.40;99.90;;;;;;5136150;27;19923;-79
2022/12/25 14:05:57;;;;;;;;;;;8.40;99.90;;;;;;5135822;27;19920;-79
2022/12/25 14:08:24;;;;;;;;;;;8.40;99.90;;;;;;5136203;27;19983;-79
2022/12/25 14:10:51;;;;;;;;;;;8.40;99.90;;;;;;5135963;27;19926;-80
2022/12/25 14:13:18;;;;;;;;;;;8.40;99.90;;;;;;5135880;27;19919;-78
2022/12/25 14:15:45;;;;;;;;;;;8.40;99.90;;;;;;5135800;27;19920;-79
2022/12/25 14:18:14;;;;;;;;;;;8.40;99.90;;;;;;5136581;27;20023;-79
2022/12/25 14:20:40;;;;;;;;;;;8.40;99.90;;;;;;5135784;27;19919;-79
2022/12/25 14:23:06;;;;;;;;;;;8.40;99.90;;;;;;5135775;27;19942;-79
2022/12/25 14:25:42;;;;;;;;;;;8.40;99.90;;;;;;5135805;27;19931;-79
2022/12/25 14:28:16;;;;;;;;;;;8.30;99.90;;;;;;5135783;27;20272;-79
2022/12/25 14:30:42;;;;;;;;;;;8.30;99.90;;;;;;5136397;27;20252;-79
2022/12/25 14:33:10;;;;;;;;;;;8.30;99.90;;;;;;5136084;27;19938;-79
2022/12/25 14:35:36;;;;;;;;;;;8.30;99.90;;;;;;5135505;27;19923;-79
2022/12/25 14:38:02;;;;;;;;;;;8.30;99.90;;;;;;5135715;27;19977;-79
2022/12/25 14:40:29;;;;;;;;;;;8.30;99.90;;;;;;5135300;27;20294;-79
2022/12/25 14:42:59;;;;;;;;;;;8.30;99.90;;;;;;5135342;27;19930;-78
2022/12/25 14:45:27;;;;;;;;;;;8.30;99.90;;;;;;5135701;27;20295;-79
2022/12/25 14:47:54;;;;;;;;;;;8.30;99.90;;;;;;5134766;27;20432;-79
2022/12/25 14:50:27;;;;;;;;;;;8.30;99.90;;;;;;5135391;27;19929;-79
2022/12/25 14:52:55;;;;;;;;;;;8.30;99.90;;;;;;5135373;27;20007;-79
2022/12/25 14:55:22;;;;;;;;;;;8.30;99.90;;;;;;5135155;27;19942;-79
2022/12/25 14:57:51;;;;;;;;;;;8.30;99.90;;;;;;5135480;27;19919;-79
2022/12/25 15:00:19;;;;;;;;;;;8.30;99.90;;;;;;5135560;27;19919;-79
2022/12/25 15:02:45;;;;;;;;;;;8.30;99.90;;;;;;5135101;27;19976;-79
2022/12/25 15:05:40;;;;;;;;;;;8.30;99.90;;;;;;5135066;27;19968;-79
2022/12/25 15:08:12;;;;;;;;;;;8.30;99.90;;;;;;5116620;27;19930;-79
2022/12/25 15:10:38;;;;;;;;;;;8.30;99.90;;;;;;5134914;27;19965;-79
2022/12/25 15:13:04;;;;;;;;;;;8.30;99.90;;;;;;5134887;27;19948;-79
2022/12/25 15:15:30;;;;;;;;;;;8.30;99.90;;;;;;5134659;27;19919;-79
2022/12/25 15:17:56;;;;;;;;;;;8.50;99.90;;;;;;5134724;27;19927;-79
2022/12/25 15:20:26;;;;;;;;;;;8.30;99.90;;;;;;5134587;27;20363;-79
2022/12/25 15:22:52;;;;;;;;;;;8.40;99.90;;;;;;5134549;27;20371;-79
2022/12/25 15:25:19;;;;;;;;;;;9.00;99.90;;;;;;5135183;27;19926;-79
2022/12/25 15:27:44;;;;;;;;;;;8.30;99.90;;;;;;5134924;27;19919;-79
2022/12/25 15:30:10;;;;;;;;;;;8.20;99.90;;;;;;5134633;27;19925;-79
2022/12/25 15:32:36;;;;;;;;;;;8.30;99.90;;;;;;5134494;27;19926;-79
2022/12/25 15:35:02;;;;;;;;;;;8.90;99.90;;;;;;5134480;27;19926;-79
2022/12/25 15:37:27;;;;;;;;;;;8.70;99.90;;;;;;5134654;27;19919;-79
2022/12/25 15:39:55;;;;;;;;;;;8.70;99.90;;;;;;5134910;28;19919;-79
2022/12/25 15:42:22;;;;;;;;;;;9.10;99.90;;;;;;5134686;28;20014;-79
2022/12/25 15:44:48;;;;;;;;;;;8.30;99.90;;;;;;5134843;28;19930;-79
2022/12/25 15:47:14;;;;;;;;;;;8.80;99.90;;;;;;5134750;28;19919;-79
2022/12/25 15:49:40;;;;;;;;;;;8.20;99.90;;;;;;5134661;28;19920;-79
2022/12/25 15:52:07;;;;;;;;;;;8.20;99.90;;;;;;5134367;28;19926;-79
2022/12/25 15:54:32;;;;;;;;;;;8.20;99.90;;;;;;5134900;28;19919;-78
2022/12/25 15:57:00;;;;;;;;;;;8.80;99.90;;;;;;5135039;28;19919;-79
2022/12/25 15:59:26;;;;;;;;;;;8.30;99.90;;;;;;5134296;28;19919;-79
2022/12/25 16:01:54;;;;;;;;;;;8.20;99.90;;;;;;5134444;28;19927;-79
2022/12/25 16:04:20;;;;;;;;;;;8.20;99.90;;;;;;5134363;28;19923;-79
2022/12/25 16:06:45;;;;;;;;;;;8.20;99.90;;;;;;5134273;28;20363;-79
2022/12/25 16:09:11;;;;;;;;;;;8.20;99.90;;;;;;5134293;28;19919;-79
2022/12/25 16:11:36;;;;;;;;;;;8.20;99.90;;;;;;5134087;28;20423;-79
2022/12/25 16:14:02;;;;;;;;;;;8.20;99.90;;;;;;5134237;28;20013;-79
2022/12/25 16:16:27;;;;;;;;;;;8.20;99.90;;;;;;5134245;28;19942;-79
2022/12/25 16:18:53;;;;;;;;;;;8.20;99.90;;;;;;5134129;28;19926;-79
2022/12/25 16:21:19;;;;;;;;;;;8.20;99.90;;;;;;5134035;28;20031;-79